sensor_id;sensor_type;location;lat;lon;timestamp;temperature;humidity
63277;DHT22;49403;51.046;13.780;2023-08-24T00:00:17;24.60;58.20
63277;DHT22;49403;51.046;13.780;2023-08-24T00:00:49;24.80;58.40
63277;DHT22;49403;51.046;13.780;2023-08-24T00:01:20;24.60;58.30
63277;DHT22;49403;51.046;13.780;2023-08-24T00:01:51;24.60;58.40
63277;DHT22;49403;51.046;13.780;2023-08-24T00:02:22;24.60;58.40
63277;DHT22;49403;51.046;13.780;2023-08-24T00:02:53;24.50;58.40
63277;DHT22;49403;51.046;13.780;2023-08-24T00:03:24;24.50;58.50
63277;DHT22;49403;51.046;13.780;2023-08-24T00:03:55;24.50;58.50
63277;DHT22;49403;51.046;13.780;2023-08-24T00:04:26;24.40;58.40
63277;DHT22;49403;51.046;13.780;2023-08-24T00:04:58;24.50;58.50
63277;DHT22;49403;51.046;13.780;2023-08-24T00:05:29;24.50;58.50
63277;DHT22;49403;51.046;13.780;2023-08-24T00:06:00;24.50;58.70
63277;DHT22;49403;51.046;13.780;2023-08-24T00:06:31;24.50;58.80
63277;DHT22;49403;51.046;13.780;2023-08-24T00:07:02;24.40;58.80
63277;DHT22;49403;51.046;13.780;2023-08-24T00:07:34;24.40;58.90
63277;DHT22;49403;51.046;13.780;2023-08-24T00:08:08;25.50;59.80
63277;DHT22;49403;51.046;13.780;2023-08-24T00:08:39;24.40;59.10
63277;DHT22;49403;51.046;13.780;2023-08-24T00:09:11;24.40;59.20
63277;DHT22;49403;51.046;13.780;2023-08-24T00:09:42;24.30;59.10
63277;DHT22;49403;51.046;13.780;2023-08-24T00:10:14;24.30;59.30
63277;DHT22;49403;51.046;13.780;2023-08-24T00:10:45;24.80;59.80
63277;DHT22;49403;51.046;13.780;2023-08-24T00:11:19;24.30;59.40
63277;DHT22;49403;51.046;13.780;2023-08-24T00:11:50;24.20;59.40
63277;DHT22;49403;51.046;13.780;2023-08-24T00:12:21;24.20;59.40
63277;DHT22;49403;51.046;13.780;2023-08-24T00:12:52;24.40;59.70
63277;DHT22;49403;51.046;13.780;2023-08-24T00:13:23;24.20;59.60
63277;DHT22;49403;51.046;13.780;2023-08-24T00:13:55;24.20;59.60
63277;DHT22;49403;51.046;13.780;2023-08-24T00:14:26;24.20;59.60
63277;DHT22;49403;51.046;13.780;2023-08-24T00:14:57;24.20;59.60
63277;DHT22;49403;51.046;13.780;2023-08-24T00:15:29;24.20;59.70
63277;DHT22;49403;51.046;13.780;2023-08-24T00:16:00;24.20;59.70
63277;DHT22;49403;51.046;13.780;2023-08-24T00:16:32;24.10;59.70
63277;DHT22;49403;51.046;13.780;2023-08-24T00:17:05;24.10;59.80
63277;DHT22;49403;51.046;13.780;2023-08-24T00:17:37;24.10;60.00
63277;DHT22;49403;51.046;13.780;2023-08-24T00:18:08;24.00;59.90
63277;DHT22;49403;51.046;13.780;2023-08-24T00:18:40;23.80;59.80
63277;DHT22;49403;51.046;13.780;2023-08-24T00:19:11;24.00;60.10
63277;DHT22;49403;51.046;13.780;2023-08-24T00:19:43;24.00;60.10
63277;DHT22;49403;51.046;13.780;2023-08-24T00:20:14;23.90;60.10
63277;DHT22;49403;51.046;13.780;2023-08-24T00:20:45;23.90;60.20
63277;DHT22;49403;51.046;13.780;2023-08-24T00:21:17;23.90;60.20
63277;DHT22;49403;51.046;13.780;2023-08-24T00:21:50;23.90;60.30
63277;DHT22;49403;51.046;13.780;2023-08-24T00:22:23;23.90;60.20
63277;DHT22;49403;51.046;13.780;2023-08-24T00:22:54;24.00;60.40
63277;DHT22;49403;51.046;13.780;2023-08-24T00:23:26;23.90;60.30
63277;DHT22;49403;51.046;13.780;2023-08-24T00:23:57;23.90;60.40
63277;DHT22;49403;51.046;13.780;2023-08-24T00:24:28;23.90;60.40
63277;DHT22;49403;51.046;13.780;2023-08-24T00:25:02;23.90;60.50
63277;DHT22;49403;51.046;13.780;2023-08-24T00:25:33;23.90;60.50
63277;DHT22;49403;51.046;13.780;2023-08-24T00:26:05;24.20;60.90
63277;DHT22;49403;51.046;13.780;2023-08-24T00:26:37;23.80;60.50
63277;DHT22;49403;51.046;13.780;2023-08-24T00:27:11;23.80;60.50
63277;DHT22;49403;51.046;13.780;2023-08-24T00:27:44;23.80;60.70
63277;DHT22;49403;51.046;13.780;2023-08-24T00:28:15;23.80;60.80
63277;DHT22;49403;51.046;13.780;2023-08-24T00:28:49;23.80;60.80
63277;DHT22;49403;51.046;13.780;2023-08-24T00:29:24;23.80;61.00
63277;DHT22;49403;51.046;13.780;2023-08-24T00:29:55;23.70;60.90
63277;DHT22;49403;51.046;13.780;2023-08-24T00:30:26;23.70;60.90
63277;DHT22;49403;51.046;13.780;2023-08-24T00:30:57;23.70;61.00
63277;DHT22;49403;51.046;13.780;2023-08-24T00:31:29;23.80;61.10
63277;DHT22;49403;51.046;13.780;2023-08-24T00:32:00;23.70;61.00
63277;DHT22;49403;51.046;13.780;2023-08-24T00:32:35;23.70;61.00
63277;DHT22;49403;51.046;13.780;2023-08-24T00:33:09;23.70;61.00
63277;DHT22;49403;51.046;13.780;2023-08-24T00:33:43;23.70;61.00
63277;DHT22;49403;51.046;13.780;2023-08-24T00:34:15;24.50;61.90
63277;DHT22;49403;51.046;13.780;2023-08-24T00:34:49;23.70;61.10
63277;DHT22;49403;51.046;13.780;2023-08-24T00:35:21;23.70;61.10
63277;DHT22;49403;51.046;13.780;2023-08-24T00:35:52;23.70;61.10
63277;DHT22;49403;51.046;13.780;2023-08-24T00:36:25;23.70;61.10
63277;DHT22;49403;51.046;13.780;2023-08-24T00:37:00;23.80;61.20
63277;DHT22;49403;51.046;13.780;2023-08-24T00:37:34;23.60;60.90
63277;DHT22;49403;51.046;13.780;2023-08-24T00:38:05;23.80;61.10
63277;DHT22;49403;51.046;13.780;2023-08-24T00:38:37;23.80;61.00
63277;DHT22;49403;51.046;13.780;2023-08-24T00:39:08;23.80;61.00
63277;DHT22;49403;51.046;13.780;2023-08-24T00:39:42;23.70;60.80
63277;DHT22;49403;51.046;13.780;2023-08-24T00:40:17;23.80;60.90
63277;DHT22;49403;51.046;13.780;2023-08-24T00:40:52;23.70;60.70
63277;DHT22;49403;51.046;13.780;2023-08-24T00:41:26;23.70;60.90
63277;DHT22;49403;51.046;13.780;2023-08-24T00:41:57;23.60;60.80
63277;DHT22;49403;51.046;13.780;2023-08-24T00:42:31;23.90;61.20
63277;DHT22;49403;51.046;13.780;2023-08-24T00:43:03;23.30;60.70
63277;DHT22;49403;51.046;13.780;2023-08-24T00:43:36;23.40;60.90
63277;DHT22;49403;51.046;13.780;2023-08-24T00:44:08;23.50;61.00
63277;DHT22;49403;51.046;13.780;2023-08-24T00:44:40;23.40;61.00
63277;DHT22;49403;51.046;13.780;2023-08-24T00:45:14;23.40;61.00
63277;DHT22;49403;51.046;13.780;2023-08-24T00:45:45;23.40;61.70
63277;DHT22;49403;51.046;13.780;2023-08-24T00:46:17;23.40;61.10
63277;DHT22;49403;51.046;13.780;2023-08-24T00:46:49;23.30;61.10
63277;DHT22;49403;51.046;13.780;2023-08-24T00:47:23;23.30;61.10
63277;DHT22;49403;51.046;13.780;2023-08-24T00:47:54;23.40;61.20
63277;DHT22;49403;51.046;13.780;2023-08-24T00:48:26;23.40;61.20
63277;DHT22;49403;51.046;13.780;2023-08-24T00:49:01;23.40;61.10
63277;DHT22;49403;51.046;13.780;2023-08-24T00:49:35;23.40;61.00
63277;DHT22;49403;51.046;13.780;2023-08-24T00:50:13;23.50;61.10
63277;DHT22;49403;51.046;13.780;2023-08-24T00:50:44;23.50;61.00
63277;DHT22;49403;51.046;13.780;2023-08-24T00:51:18;23.50;61.00
63277;DHT22;49403;51.046;13.780;2023-08-24T00:51:53;23.40;60.80
63277;DHT22;49403;51.046;13.780;2023-08-24T00:52:29;23.40;60.90
63277;DHT22;49403;51.046;13.780;2023-08-24T00:53:02;23.40;61.00
63277;DHT22;49403;51.046;13.780;2023-08-24T00:53:34;23.40;61.00
63277;DHT22;49403;51.046;13.780;2023-08-24T00:54:06;23.50;61.10
63277;DHT22;49403;51.046;13.780;2023-08-24T00:54:37;23.40;61.00
63277;DHT22;49403;51.046;13.780;2023-08-24T00:55:13;23.50;61.10
63277;DHT22;49403;51.046;13.780;2023-08-24T00:55:47;23.50;61.10
63277;DHT22;49403;51.046;13.780;2023-08-24T00:56:22;23.50;61.00
63277;DHT22;49403;51.046;13.780;2023-08-24T00:56:56;23.40;60.80
63277;DHT22;49403;51.046;13.780;2023-08-24T00:57:28;23.50;60.90
63277;DHT22;49403;51.046;13.780;2023-08-24T00:58:02;23.50;61.10
63277;DHT22;49403;51.046;13.780;2023-08-24T00:58:38;23.50;61.00
63277;DHT22;49403;51.046;13.780;2023-08-24T00:59:10;23.50;60.90
63277;DHT22;49403;51.046;13.780;2023-08-24T00:59:44;23.50;60.90
63277;DHT22;49403;51.046;13.780;2023-08-24T01:00:18;23.40;60.70
63277;DHT22;49403;51.046;13.780;2023-08-24T01:00:53;23.40;60.80
63277;DHT22;49403;51.046;13.780;2023-08-24T01:01:25;23.40;60.90
63277;DHT22;49403;51.046;13.780;2023-08-24T01:01:56;23.40;61.10
63277;DHT22;49403;51.046;13.780;2023-08-24T01:02:30;23.30;61.10
63277;DHT22;49403;51.046;13.780;2023-08-24T01:03:01;23.30;61.30
63277;DHT22;49403;51.046;13.780;2023-08-24T01:03:33;23.30;61.40
63277;DHT22;49403;51.046;13.780;2023-08-24T01:04:07;23.20;61.50
63277;DHT22;49403;51.046;13.780;2023-08-24T01:04:41;23.20;61.60
63277;DHT22;49403;51.046;13.780;2023-08-24T01:05:15;23.20;61.60
63277;DHT22;49403;51.046;13.780;2023-08-24T01:05:46;23.40;62.50
63277;DHT22;49403;51.046;13.780;2023-08-24T01:06:18;23.30;61.80
63277;DHT22;49403;51.046;13.780;2023-08-24T01:06:49;23.10;61.70
63277;DHT22;49403;51.046;13.780;2023-08-24T01:07:21;23.30;62.00
63277;DHT22;49403;51.046;13.780;2023-08-24T01:07:52;23.10;61.80
63277;DHT22;49403;51.046;13.780;2023-08-24T01:08:27;23.10;61.90
63277;DHT22;49403;51.046;13.780;2023-08-24T01:08:58;23.10;62.10
63277;DHT22;49403;51.046;13.780;2023-08-24T01:09:30;23.10;62.10
63277;DHT22;49403;51.046;13.780;2023-08-24T01:10:02;23.20;62.30
63277;DHT22;49403;51.046;13.780;2023-08-24T01:10:44;23.10;62.20
63277;DHT22;49403;51.046;13.780;2023-08-24T01:11:37;23.20;62.40
63277;DHT22;49403;51.046;13.780;2023-08-24T01:13:00;23.10;62.20
63277;DHT22;49403;51.046;13.780;2023-08-24T01:13:50;23.10;62.30
63277;DHT22;49403;51.046;13.780;2023-08-24T01:14:24;23.00;62.30
63277;DHT22;49403;51.046;13.780;2023-08-24T01:15:22;23.00;62.30
63277;DHT22;49403;51.046;13.780;2023-08-24T01:16:04;24.20;63.60
63277;DHT22;49403;51.046;13.780;2023-08-24T01:16:36;23.00;62.50
63277;DHT22;49403;51.046;13.780;2023-08-24T01:17:14;23.00;62.50
63277;DHT22;49403;51.046;13.780;2023-08-24T01:17:47;23.00;62.60
63277;DHT22;49403;51.046;13.780;2023-08-24T01:18:20;23.00;62.60
63277;DHT22;49403;51.046;13.780;2023-08-24T01:18:58;23.00;62.60
63277;DHT22;49403;51.046;13.780;2023-08-24T01:19:44;23.00;62.60
63277;DHT22;49403;51.046;13.780;2023-08-24T01:20:15;22.90;62.60
63277;DHT22;49403;51.046;13.780;2023-08-24T01:20:49;23.30;63.00
63277;DHT22;49403;51.046;13.780;2023-08-24T01:21:21;23.00;62.70
63277;DHT22;49403;51.046;13.780;2023-08-24T01:21:54;23.00;62.70
63277;DHT22;49403;51.046;13.780;2023-08-24T01:22:37;23.00;62.60
63277;DHT22;49403;51.046;13.780;2023-08-24T01:23:36;23.00;62.70
63277;DHT22;49403;51.046;13.780;2023-08-24T01:24:14;23.00;62.60
63277;DHT22;49403;51.046;13.780;2023-08-24T01:24:57;23.00;62.60
63277;DHT22;49403;51.046;13.780;2023-08-24T01:25:38;23.00;62.60
63277;DHT22;49403;51.046;13.780;2023-08-24T01:26:18;22.80;62.50
63277;DHT22;49403;51.046;13.780;2023-08-24T01:26:50;23.90;63.60
63277;DHT22;49403;51.046;13.780;2023-08-24T01:27:22;23.00;62.70
63277;DHT22;49403;51.046;13.780;2023-08-24T01:27:54;23.00;62.80
63277;DHT22;49403;51.046;13.780;2023-08-24T01:28:26;23.00;62.80
63277;DHT22;49403;51.046;13.780;2023-08-24T01:28:58;23.00;62.70
63277;DHT22;49403;51.046;13.780;2023-08-24T01:29:29;22.90;62.70
63277;DHT22;49403;51.046;13.780;2023-08-24T01:30:02;22.90;62.70
63277;DHT22;49403;51.046;13.780;2023-08-24T01:30:34;22.90;62.80
63277;DHT22;49403;51.046;13.780;2023-08-24T01:31:06;22.90;62.90
63277;DHT22;49403;51.046;13.780;2023-08-24T01:31:38;22.80;62.90
63277;DHT22;49403;51.046;13.780;2023-08-24T01:32:10;22.90;63.10
63277;DHT22;49403;51.046;13.780;2023-08-24T01:32:42;22.90;63.10
63277;DHT22;49403;51.046;13.780;2023-08-24T01:33:14;24.10;64.30
63277;DHT22;49403;51.046;13.780;2023-08-24T01:33:45;22.60;62.80
63277;DHT22;49403;51.046;13.780;2023-08-24T01:34:17;22.90;63.20
63277;DHT22;49403;51.046;13.780;2023-08-24T01:34:48;22.90;63.10
63277;DHT22;49403;51.046;13.780;2023-08-24T01:35:19;23.40;63.60
63277;DHT22;49403;51.046;13.780;2023-08-24T01:35:50;22.90;63.10
63277;DHT22;49403;51.046;13.780;2023-08-24T01:36:21;22.80;63.20
63277;DHT22;49403;51.046;13.780;2023-08-24T01:36:53;23.00;63.50
63277;DHT22;49403;51.046;13.780;2023-08-24T01:37:24;22.80;63.20
63277;DHT22;49403;51.046;13.780;2023-08-24T01:37:55;22.80;63.30
63277;DHT22;49403;51.046;13.780;2023-08-24T01:38:27;22.90;63.40
63277;DHT22;49403;51.046;13.780;2023-08-24T01:39:31;22.90;63.40
63277;DHT22;49403;51.046;13.780;2023-08-24T01:40:15;22.90;63.30
63277;DHT22;49403;51.046;13.780;2023-08-24T01:41:36;22.90;63.30
63277;DHT22;49403;51.046;13.780;2023-08-24T01:42:18;22.90;63.60
63277;DHT22;49403;51.046;13.780;2023-08-24T01:42:58;22.80;63.30
63277;DHT22;49403;51.046;13.780;2023-08-24T01:43:30;22.80;63.40
63277;DHT22;49403;51.046;13.780;2023-08-24T01:44:04;22.90;63.60
63277;DHT22;49403;51.046;13.780;2023-08-24T01:44:39;22.70;63.40
63277;DHT22;49403;51.046;13.780;2023-08-24T01:45:12;22.60;63.40
63277;DHT22;49403;51.046;13.780;2023-08-24T01:45:45;22.80;63.60
63277;DHT22;49403;51.046;13.780;2023-08-24T01:46:21;22.80;63.90
63277;DHT22;49403;51.046;13.780;2023-08-24T01:46:53;22.80;63.60
63277;DHT22;49403;51.046;13.780;2023-08-24T01:47:25;22.80;63.60
63277;DHT22;49403;51.046;13.780;2023-08-24T01:47:58;22.30;63.20
63277;DHT22;49403;51.046;13.780;2023-08-24T01:48:30;21.80;62.80
63277;DHT22;49403;51.046;13.780;2023-08-24T01:49:02;22.70;63.80
63277;DHT22;49403;51.046;13.780;2023-08-24T01:49:36;23.90;65.20
63277;DHT22;49403;51.046;13.780;2023-08-24T01:50:07;22.60;64.00
63277;DHT22;49403;51.046;13.780;2023-08-24T01:50:38;22.60;64.10
63277;DHT22;49403;51.046;13.780;2023-08-24T01:51:10;22.60;64.10
63277;DHT22;49403;51.046;13.780;2023-08-24T01:51:43;22.60;64.20
63277;DHT22;49403;51.046;13.780;2023-08-24T01:52:15;22.50;64.10
63277;DHT22;49403;51.046;13.780;2023-08-24T01:52:47;22.60;64.20
63277;DHT22;49403;51.046;13.780;2023-08-24T01:53:18;22.50;64.00
63277;DHT22;49403;51.046;13.780;2023-08-24T01:53:49;23.90;65.40
63277;DHT22;49403;51.046;13.780;2023-08-24T01:54:21;22.80;64.40
63277;DHT22;49403;51.046;13.780;2023-08-24T01:54:52;22.50;64.10
63277;DHT22;49403;51.046;13.780;2023-08-24T01:55:23;22.60;64.20
63277;DHT22;49403;51.046;13.780;2023-08-24T01:55:54;22.60;64.10
63277;DHT22;49403;51.046;13.780;2023-08-24T01:56:26;22.60;64.00
63277;DHT22;49403;51.046;13.780;2023-08-24T01:56:57;22.60;64.00
63277;DHT22;49403;51.046;13.780;2023-08-24T01:57:28;22.60;63.90
63277;DHT22;49403;51.046;13.780;2023-08-24T01:58:00;22.60;63.90
63277;DHT22;49403;51.046;13.780;2023-08-24T01:58:31;22.60;63.90
63277;DHT22;49403;51.046;13.780;2023-08-24T01:59:02;22.60;63.90
63277;DHT22;49403;51.046;13.780;2023-08-24T01:59:33;22.60;63.90
63277;DHT22;49403;51.046;13.780;2023-08-24T02:00:05;22.50;64.60
63277;DHT22;49403;51.046;13.780;2023-08-24T02:00:37;22.60;63.90
63277;DHT22;49403;51.046;13.780;2023-08-24T02:01:09;22.60;63.90
63277;DHT22;49403;51.046;13.780;2023-08-24T02:01:41;22.60;63.80
63277;DHT22;49403;51.046;13.780;2023-08-24T02:02:12;22.60;63.70
63277;DHT22;49403;51.046;13.780;2023-08-24T02:02:44;22.60;63.60
63277;DHT22;49403;51.046;13.780;2023-08-24T02:03:15;22.60;63.60
63277;DHT22;49403;51.046;13.780;2023-08-24T02:03:46;23.30;64.30
63277;DHT22;49403;51.046;13.780;2023-08-24T02:04:17;22.60;63.60
63277;DHT22;49403;51.046;13.780;2023-08-24T02:04:49;22.50;63.50
63277;DHT22;49403;51.046;13.780;2023-08-24T02:05:20;22.70;63.60
63277;DHT22;49403;51.046;13.780;2023-08-24T02:05:51;22.70;63.60
63277;DHT22;49403;51.046;13.780;2023-08-24T02:06:22;23.30;64.30
63277;DHT22;49403;51.046;13.780;2023-08-24T02:06:53;22.70;63.60
63277;DHT22;49403;51.046;13.780;2023-08-24T02:07:24;22.70;63.50
63277;DHT22;49403;51.046;13.780;2023-08-24T02:07:55;22.70;63.50
63277;DHT22;49403;51.046;13.780;2023-08-24T02:08:27;22.70;63.40
63277;DHT22;49403;51.046;13.780;2023-08-24T02:08:59;22.70;63.40
63277;DHT22;49403;51.046;13.780;2023-08-24T02:09:30;22.70;63.40
63277;DHT22;49403;51.046;13.780;2023-08-24T02:10:02;22.80;63.70
63277;DHT22;49403;51.046;13.780;2023-08-24T02:10:33;24.00;64.80
63277;DHT22;49403;51.046;13.780;2023-08-24T02:11:04;22.60;63.50
63277;DHT22;49403;51.046;13.780;2023-08-24T02:11:35;22.60;63.60
63277;DHT22;49403;51.046;13.780;2023-08-24T02:12:06;22.60;63.60
63277;DHT22;49403;51.046;13.780;2023-08-24T02:12:38;22.60;63.60
63277;DHT22;49403;51.046;13.780;2023-08-24T02:13:09;22.60;63.60
63277;DHT22;49403;51.046;13.780;2023-08-24T02:13:40;22.60;63.70
63277;DHT22;49403;51.046;13.780;2023-08-24T02:14:11;22.60;63.60
63277;DHT22;49403;51.046;13.780;2023-08-24T02:14:42;22.50;63.60
63277;DHT22;49403;51.046;13.780;2023-08-24T02:15:13;22.50;63.50
63277;DHT22;49403;51.046;13.780;2023-08-24T02:15:45;22.60;63.60
63277;DHT22;49403;51.046;13.780;2023-08-24T02:16:16;22.60;63.60
63277;DHT22;49403;51.046;13.780;2023-08-24T02:16:47;22.60;63.80
63277;DHT22;49403;51.046;13.780;2023-08-24T02:17:18;22.70;63.70
63277;DHT22;49403;51.046;13.780;2023-08-24T02:17:50;22.60;63.60
63277;DHT22;49403;51.046;13.780;2023-08-24T02:18:21;22.90;63.90
63277;DHT22;49403;51.046;13.780;2023-08-24T02:18:52;22.60;63.60
63277;DHT22;49403;51.046;13.780;2023-08-24T02:19:23;22.60;63.60
63277;DHT22;49403;51.046;13.780;2023-08-24T02:19:55;23.50;64.50
63277;DHT22;49403;51.046;13.780;2023-08-24T02:20:26;22.60;63.50
63277;DHT22;49403;51.046;13.780;2023-08-24T02:20:57;23.00;63.90
63277;DHT22;49403;51.046;13.780;2023-08-24T02:21:28;22.60;63.50
63277;DHT22;49403;51.046;13.780;2023-08-24T02:21:59;22.60;63.50
63277;DHT22;49403;51.046;13.780;2023-08-24T02:22:31;22.60;63.50
63277;DHT22;49403;51.046;13.780;2023-08-24T02:23:02;22.60;63.60
63277;DHT22;49403;51.046;13.780;2023-08-24T02:23:33;22.20;63.30
63277;DHT22;49403;51.046;13.780;2023-08-24T02:24:05;22.60;63.70
63277;DHT22;49403;51.046;13.780;2023-08-24T02:24:36;22.60;63.70
63277;DHT22;49403;51.046;13.780;2023-08-24T02:25:09;22.60;63.70
63277;DHT22;49403;51.046;13.780;2023-08-24T02:25:43;22.60;63.70
63277;DHT22;49403;51.046;13.780;2023-08-24T02:26:15;23.50;64.60
63277;DHT22;49403;51.046;13.780;2023-08-24T02:26:46;22.60;63.80
63277;DHT22;49403;51.046;13.780;2023-08-24T02:27:17;22.60;63.70
63277;DHT22;49403;51.046;13.780;2023-08-24T02:27:48;22.50;63.70
63277;DHT22;49403;51.046;13.780;2023-08-24T02:28:19;22.50;63.70
63277;DHT22;49403;51.046;13.780;2023-08-24T02:28:50;22.60;64.00
63277;DHT22;49403;51.046;13.780;2023-08-24T02:29:21;22.50;63.80
63277;DHT22;49403;51.046;13.780;2023-08-24T02:29:52;22.40;63.90
63277;DHT22;49403;51.046;13.780;2023-08-24T02:30:24;22.50;64.00
63277;DHT22;49403;51.046;13.780;2023-08-24T02:30:59;22.40;64.00
63277;DHT22;49403;51.046;13.780;2023-08-24T02:31:30;22.40;64.00
63277;DHT22;49403;51.046;13.780;2023-08-24T02:32:01;22.40;64.10
63277;DHT22;49403;51.046;13.780;2023-08-24T02:32:32;22.40;64.20
63277;DHT22;49403;51.046;13.780;2023-08-24T02:33:04;22.40;64.20
63277;DHT22;49403;51.046;13.780;2023-08-24T02:33:36;22.40;64.30
63277;DHT22;49403;51.046;13.780;2023-08-24T02:34:07;22.40;64.30
63277;DHT22;49403;51.046;13.780;2023-08-24T02:34:38;22.40;64.40
63277;DHT22;49403;51.046;13.780;2023-08-24T02:35:09;22.40;64.40
63277;DHT22;49403;51.046;13.780;2023-08-24T02:35:40;22.70;64.70
63277;DHT22;49403;51.046;13.780;2023-08-24T02:36:12;22.40;64.40
63277;DHT22;49403;51.046;13.780;2023-08-24T02:36:43;22.30;64.40
63277;DHT22;49403;51.046;13.780;2023-08-24T02:37:14;22.40;64.50
63277;DHT22;49403;51.046;13.780;2023-08-24T02:37:45;22.30;64.50
63277;DHT22;49403;51.046;13.780;2023-08-24T02:38:16;22.20;64.40
63277;DHT22;49403;51.046;13.780;2023-08-24T02:38:48;22.30;64.60
63277;DHT22;49403;51.046;13.780;2023-08-24T02:39:19;22.30;64.60
63277;DHT22;49403;51.046;13.780;2023-08-24T02:39:50;22.30;64.70
63277;DHT22;49403;51.046;13.780;2023-08-24T02:40:21;22.20;64.70
63277;DHT22;49403;51.046;13.780;2023-08-24T02:41:03;22.20;64.90
63277;DHT22;49403;51.046;13.780;2023-08-24T02:41:34;22.10;64.80
63277;DHT22;49403;51.046;13.780;2023-08-24T02:42:06;22.20;65.00
63277;DHT22;49403;51.046;13.780;2023-08-24T02:42:37;22.20;65.10
63277;DHT22;49403;51.046;13.780;2023-08-24T02:43:08;22.20;65.10
63277;DHT22;49403;51.046;13.780;2023-08-24T02:43:39;22.20;65.30
63277;DHT22;49403;51.046;13.780;2023-08-24T02:44:10;22.20;65.40
63277;DHT22;49403;51.046;13.780;2023-08-24T02:44:41;22.20;65.50
63277;DHT22;49403;51.046;13.780;2023-08-24T02:45:12;22.70;66.10
63277;DHT22;49403;51.046;13.780;2023-08-24T02:45:44;22.40;65.80
63277;DHT22;49403;51.046;13.780;2023-08-24T02:46:15;22.20;65.70
63277;DHT22;49403;51.046;13.780;2023-08-24T02:46:48;22.10;65.70
63277;DHT22;49403;51.046;13.780;2023-08-24T02:47:19;22.10;65.70
63277;DHT22;49403;51.046;13.780;2023-08-24T02:47:50;22.00;65.70
63277;DHT22;49403;51.046;13.780;2023-08-24T02:48:21;22.00;65.70
63277;DHT22;49403;51.046;13.780;2023-08-24T02:48:52;22.00;65.70
63277;DHT22;49403;51.046;13.780;2023-08-24T02:49:24;22.10;65.90
63277;DHT22;49403;51.046;13.780;2023-08-24T02:49:55;22.10;65.90
63277;DHT22;49403;51.046;13.780;2023-08-24T02:50:26;22.00;65.80
63277;DHT22;49403;51.046;13.780;2023-08-24T02:50:58;22.00;65.80
63277;DHT22;49403;51.046;13.780;2023-08-24T02:51:30;21.90;65.90
63277;DHT22;49403;51.046;13.780;2023-08-24T02:52:02;22.00;66.10
63277;DHT22;49403;51.046;13.780;2023-08-24T02:52:33;22.00;66.00
63277;DHT22;49403;51.046;13.780;2023-08-24T02:53:04;22.00;66.10
63277;DHT22;49403;51.046;13.780;2023-08-24T02:53:35;22.00;66.10
63277;DHT22;49403;51.046;13.780;2023-08-24T02:54:07;22.90;67.00
63277;DHT22;49403;51.046;13.780;2023-08-24T02:54:38;21.90;66.00
63277;DHT22;49403;51.046;13.780;2023-08-24T02:55:10;21.80;65.90
63277;DHT22;49403;51.046;13.780;2023-08-24T02:55:41;21.90;66.10
63277;DHT22;49403;51.046;13.780;2023-08-24T02:56:12;21.90;66.30
63277;DHT22;49403;51.046;13.780;2023-08-24T02:56:43;21.90;66.20
63277;DHT22;49403;51.046;13.780;2023-08-24T02:57:14;22.00;66.40
63277;DHT22;49403;51.046;13.780;2023-08-24T02:57:46;21.80;66.30
63277;DHT22;49403;51.046;13.780;2023-08-24T02:58:17;21.80;66.30
63277;DHT22;49403;51.046;13.780;2023-08-24T02:58:48;21.90;66.60
63277;DHT22;49403;51.046;13.780;2023-08-24T02:59:19;21.80;66.50
63277;DHT22;49403;51.046;13.780;2023-08-24T02:59:50;21.90;66.60
63277;DHT22;49403;51.046;13.780;2023-08-24T03:00:21;21.80;66.50
63277;DHT22;49403;51.046;13.780;2023-08-24T03:00:53;21.80;66.60
63277;DHT22;49403;51.046;13.780;2023-08-24T03:01:24;21.80;66.80
63277;DHT22;49403;51.046;13.780;2023-08-24T03:01:55;22.20;67.40
63277;DHT22;49403;51.046;13.780;2023-08-24T03:02:26;21.70;66.90
63277;DHT22;49403;51.046;13.780;2023-08-24T03:02:57;22.50;67.80
63277;DHT22;49403;51.046;13.780;2023-08-24T03:03:29;21.70;67.00
63277;DHT22;49403;51.046;13.780;2023-08-24T03:04:03;21.70;67.00
63277;DHT22;49403;51.046;13.780;2023-08-24T03:04:35;21.70;66.90
63277;DHT22;49403;51.046;13.780;2023-08-24T03:05:07;21.70;66.80
63277;DHT22;49403;51.046;13.780;2023-08-24T03:05:38;21.70;66.80
63277;DHT22;49403;51.046;13.780;2023-08-24T03:06:12;21.80;66.90
63277;DHT22;49403;51.046;13.780;2023-08-24T03:06:44;21.70;66.80
63277;DHT22;49403;51.046;13.780;2023-08-24T03:07:15;21.80;66.80
63277;DHT22;49403;51.046;13.780;2023-08-24T03:07:46;22.10;67.10
63277;DHT22;49403;51.046;13.780;2023-08-24T03:08:18;21.80;66.70
63277;DHT22;49403;51.046;13.780;2023-08-24T03:08:49;21.80;66.70
63277;DHT22;49403;51.046;13.780;2023-08-24T03:09:20;23.30;68.30
63277;DHT22;49403;51.046;13.780;2023-08-24T03:09:51;21.80;66.70
63277;DHT22;49403;51.046;13.780;2023-08-24T03:10:22;21.90;66.90
63277;DHT22;49403;51.046;13.780;2023-08-24T03:10:54;21.90;66.80
63277;DHT22;49403;51.046;13.780;2023-08-24T03:11:25;21.90;66.80
63277;DHT22;49403;51.046;13.780;2023-08-24T03:11:56;21.80;66.70
63277;DHT22;49403;51.046;13.780;2023-08-24T03:12:27;21.90;66.70
63277;DHT22;49403;51.046;13.780;2023-08-24T03:12:58;21.90;66.80
63277;DHT22;49403;51.046;13.780;2023-08-24T03:13:30;21.90;66.70
63277;DHT22;49403;51.046;13.780;2023-08-24T03:14:01;21.80;66.50
63277;DHT22;49403;51.046;13.780;2023-08-24T03:14:33;21.90;66.60
63277;DHT22;49403;51.046;13.780;2023-08-24T03:15:04;21.90;66.50
63277;DHT22;49403;51.046;13.780;2023-08-24T03:15:36;21.90;66.50
63277;DHT22;49403;51.046;13.780;2023-08-24T03:16:08;21.90;66.40
63277;DHT22;49403;51.046;13.780;2023-08-24T03:16:39;21.90;66.40
63277;DHT22;49403;51.046;13.780;2023-08-24T03:17:11;21.90;66.40
63277;DHT22;49403;51.046;13.780;2023-08-24T03:17:42;21.90;66.40
63277;DHT22;49403;51.046;13.780;2023-08-24T03:18:14;21.90;66.40
63277;DHT22;49403;51.046;13.780;2023-08-24T03:18:46;22.40;66.80
63277;DHT22;49403;51.046;13.780;2023-08-24T03:19:17;21.90;66.40
63277;DHT22;49403;51.046;13.780;2023-08-24T03:19:48;21.90;66.40
63277;DHT22;49403;51.046;13.780;2023-08-24T03:20:20;21.90;66.50
63277;DHT22;49403;51.046;13.780;2023-08-24T03:20:55;21.80;66.40
63277;DHT22;49403;51.046;13.780;2023-08-24T03:21:26;21.90;66.50
63277;DHT22;49403;51.046;13.780;2023-08-24T03:21:57;21.90;66.50
63277;DHT22;49403;51.046;13.780;2023-08-24T03:22:28;21.90;66.50
63277;DHT22;49403;51.046;13.780;2023-08-24T03:22:59;21.90;66.50
63277;DHT22;49403;51.046;13.780;2023-08-24T03:23:31;21.90;66.60
63277;DHT22;49403;51.046;13.780;2023-08-24T03:24:02;21.90;66.50